createdAt,value
2022-12-05T00:01:20.195Z,21.53
2022-12-05T00:03:48.655Z,22.97
2022-12-05T00:06:18.384Z,23.13
2022-12-05T00:08:46.712Z,22.30
2022-12-05T00:11:15.068Z,22.67
2022-12-05T00:13:43.661Z,21.67
2022-12-05T00:16:12.619Z,22.33
2022-12-05T00:18:40.957Z,21.27
2022-12-05T00:21:09.545Z,21.90
2022-12-05T00:23:39.110Z,22.87
2022-12-05T00:26:07.963Z,20.73
2022-12-05T00:28:36.587Z,20.80
2022-12-05T00:31:05.380Z,21.40
2022-12-05T00:33:33.761Z,21.50
2022-12-05T00:36:03.240Z,21.63
2022-12-05T00:38:31.488Z,21.00
2022-12-05T00:41:05.468Z,21.40
2022-12-05T00:43:34.190Z,21.70
2022-12-05T00:46:03.569Z,21.07
2022-12-05T00:48:31.958Z,21.50
2022-12-05T00:51:03.657Z,20.03
2022-12-05T00:53:31.871Z,21.77
2022-12-05T00:56:05.066Z,20.67
2022-12-05T00:58:33.377Z,19.47
2022-12-05T01:01:07.292Z,20.40
2022-12-05T01:03:35.757Z,19.67
2022-12-05T01:06:05.920Z,20.00
2022-12-05T01:08:35.028Z,20.40
2022-12-05T01:11:05.346Z,19.83
2022-12-05T01:13:33.788Z,20.50
2022-12-05T01:16:02.361Z,20.57
2022-12-05T01:18:31.016Z,19.50
2022-12-05T01:20:59.476Z,21.50
2022-12-05T01:23:28.846Z,19.67
2022-12-05T01:25:57.144Z,20.53
2022-12-05T01:28:26.754Z,20.83
2022-12-05T01:30:54.989Z,20.73
2022-12-05T01:33:23.244Z,20.00
2022-12-05T01:35:51.490Z,19.57
2022-12-05T01:38:19.752Z,20.40
2022-12-05T01:40:48.068Z,20.23
2022-12-05T01:43:17.436Z,20.20
2022-12-05T01:45:48.315Z,21.10
2022-12-05T01:48:20.038Z,19.53
2022-12-05T01:50:48.730Z,20.37
2022-12-05T01:53:17.448Z,20.97
2022-12-05T01:55:46.317Z,20.37
2022-12-05T01:58:14.889Z,20.97
2022-12-05T02:00:43.209Z,19.87
2022-12-05T02:03:14.410Z,21.23
2022-12-05T02:05:43.090Z,19.80
2022-12-05T02:08:12.281Z,19.73
2022-12-05T02:10:42.270Z,20.90
2022-12-05T02:13:16.122Z,20.10
2022-12-05T02:15:50.025Z,21.13
2022-12-05T02:18:28.963Z,21.17
2022-12-05T02:21:06.574Z,20.03
2022-12-05T02:23:41.067Z,19.90
2022-12-05T02:26:24.182Z,20.70
2022-12-05T02:29:03.554Z,20.30
2022-12-05T02:31:36.005Z,20.80
2022-12-05T02:34:08.527Z,20.37
2022-12-05T02:36:40.226Z,20.50
2022-12-05T02:39:13.734Z,20.07
2022-12-05T02:41:43.013Z,20.63
2022-12-05T02:44:14.869Z,19.77
2022-12-05T02:46:44.723Z,20.70
2022-12-05T02:49:15.100Z,20.53
2022-12-05T02:51:44.500Z,20.00
2022-12-05T02:54:14.482Z,20.20
2022-12-05T02:56:44.085Z,20.77
2022-12-05T02:59:12.443Z,19.97
2022-12-05T03:01:40.801Z,21.13
2022-12-05T03:04:14.201Z,19.77
2022-12-05T03:06:44.815Z,20.60
2022-12-05T03:09:15.073Z,20.30
2022-12-05T03:11:46.901Z,19.57
2022-12-05T03:14:16.031Z,20.27
2022-12-05T03:16:45.585Z,20.53
2022-12-05T03:19:17.856Z,19.77
2022-12-05T03:21:50.367Z,19.77
2022-12-05T03:24:18.955Z,20.83
2022-12-05T03:26:52.697Z,19.37
2022-12-05T03:29:27.216Z,19.07
2022-12-05T03:32:01.122Z,20.87
2022-12-05T03:34:35.159Z,19.97
2022-12-05T03:37:07.215Z,20.03
2022-12-05T03:39:37.712Z,18.67
2022-12-05T03:42:11.083Z,19.73
2022-12-05T03:44:43.632Z,19.20
2022-12-05T03:47:14.190Z,19.33
2022-12-05T03:49:46.269Z,18.30
2022-12-05T03:52:17.203Z,18.00
2022-12-05T03:54:47.268Z,18.60
2022-12-05T03:57:16.951Z,19.63
2022-12-05T03:59:48.508Z,19.63
2022-12-05T04:02:20.046Z,17.77
2022-12-05T04:04:52.806Z,17.63
2022-12-05T04:07:22.423Z,18.93
2022-12-05T04:09:53.121Z,17.57
2022-12-05T04:12:23.522Z,18.43
2022-12-05T04:14:53.601Z,18.17
2022-12-05T04:17:25.860Z,17.17
2022-12-05T04:20:15.999Z,17.17
2022-12-05T04:22:44.865Z,17.10
2022-12-05T04:25:32.371Z,17.40
2022-12-05T04:28:02.202Z,17.57
2022-12-05T04:30:34.003Z,16.43
2022-12-05T04:33:04.384Z,16.93
2022-12-05T04:35:35.656Z,16.57
2022-12-05T04:38:05.937Z,17.07
2022-12-05T04:40:36.794Z,16.43
2022-12-05T04:43:06.086Z,15.70
2022-12-05T04:45:34.810Z,17.23
2022-12-05T04:48:04.794Z,17.43
2022-12-05T04:50:35.515Z,15.80
2022-12-05T04:53:04.717Z,17.07
2022-12-05T04:55:34.262Z,17.63
2022-12-05T04:58:04.907Z,16.53
2022-12-05T05:00:33.484Z,16.43
2022-12-05T05:03:06.421Z,16.10
2022-12-05T05:05:38.979Z,17.00
2022-12-05T05:08:07.644Z,16.73
2022-12-05T05:10:39.678Z,17.77
2022-12-05T05:13:08.001Z,16.80
2022-12-05T05:15:36.329Z,16.70
2022-12-05T05:18:04.635Z,16.20
2022-12-05T05:20:33.151Z,16.47
2022-12-05T05:23:02.775Z,17.03
2022-12-05T05:25:31.115Z,15.53
2022-12-05T05:27:59.402Z,15.83
2022-12-05T05:30:27.738Z,15.43
2022-12-05T05:32:56.212Z,17.20
2022-12-05T05:35:24.672Z,16.73
2022-12-05T05:38:00.576Z,15.83
2022-12-05T05:40:30.181Z,16.80
2022-12-05T05:42:58.407Z,15.77
2022-12-05T05:45:26.707Z,16.27
2022-12-05T05:47:54.955Z,15.30
2022-12-05T05:50:23.143Z,14.10
2022-12-05T05:52:51.354Z,15.07
2022-12-05T05:55:19.638Z,15.20
2022-12-05T05:57:49.354Z,14.47
2022-12-05T06:00:18.192Z,14.60
2022-12-05T06:02:46.571Z,14.27
2022-12-05T06:05:14.899Z,13.23
2022-12-05T06:07:43.185Z,13.87
2022-12-05T06:10:11.488Z,13.60
2022-12-05T06:12:39.743Z,14.00
2022-12-05T06:15:10.209Z,13.80
2022-12-05T06:17:38.395Z,14.70
2022-12-05T06:20:07.494Z,13.53
2022-12-05T06:22:36.267Z,13.10
2022-12-05T06:25:04.732Z,13.73
2022-12-05T06:27:33.210Z,13.33
2022-12-05T06:30:01.669Z,13.33
2022-12-05T06:32:31.372Z,14.10
2022-12-05T06:34:59.673Z,13.37
2022-12-05T06:37:27.925Z,14.10
2022-12-05T06:39:56.375Z,13.23
2022-12-05T06:42:24.816Z,14.37
2022-12-05T06:44:53.059Z,13.47
2022-12-05T06:47:21.288Z,13.33
2022-12-05T06:49:50.867Z,14.87
2022-12-05T06:52:19.106Z,14.80
2022-12-05T06:54:47.443Z,15.60
2022-12-05T06:57:15.924Z,15.07
2022-12-05T06:59:44.202Z,13.47
2022-12-05T07:02:13.191Z,13.90
2022-12-05T07:04:41.491Z,13.17
2022-12-05T07:07:13.145Z,14.20
2022-12-05T07:09:48.432Z,15.10
2022-12-05T07:12:17.291Z,13.63
2022-12-05T07:14:48.192Z,15.60
2022-12-05T07:17:17.192Z,15.17
2022-12-05T07:19:45.487Z,15.03
2022-12-05T07:22:16.116Z,15.40
2022-12-05T07:24:44.838Z,14.70
2022-12-05T07:27:13.296Z,15.80
2022-12-05T07:29:41.644Z,14.50
2022-12-05T07:32:10.067Z,15.37
2022-12-05T07:34:39.483Z,14.73
2022-12-05T07:37:08.141Z,13.07
2022-12-05T07:39:37.787Z,14.83
2022-12-05T07:42:06.190Z,15.07
2022-12-05T07:44:34.870Z,14.20
2022-12-05T07:47:03.179Z,14.20
2022-12-05T07:49:31.407Z,13.33
2022-12-05T07:51:59.634Z,13.43
2022-12-05T07:54:27.940Z,13.67
2022-12-05T07:56:57.579Z,13.70
2022-12-05T07:59:25.907Z,13.83
2022-12-05T08:01:54.159Z,13.20
2022-12-05T08:04:22.392Z,13.47
2022-12-05T08:06:50.661Z,11.90
2022-12-05T08:09:19.141Z,12.83
2022-12-05T08:11:52.410Z,12.07
2022-12-05T08:14:22.643Z,11.90
2022-12-05T08:16:50.986Z,12.07
2022-12-05T08:19:19.298Z,12.37
2022-12-05T08:21:47.671Z,12.20
2022-12-05T08:24:16.198Z,12.03
2022-12-05T08:26:44.459Z,12.33
2022-12-05T08:29:13.307Z,12.27
2022-12-05T08:31:44.591Z,12.80
2022-12-05T08:34:13.908Z,13.27
2022-12-05T08:36:42.594Z,13.10
2022-12-05T08:39:14.242Z,12.70
2022-12-05T08:41:42.688Z,12.53
2022-12-05T08:44:11.045Z,13.50
2022-12-05T08:46:40.029Z,12.27
2022-12-05T08:49:09.954Z,13.10
2022-12-05T08:51:38.170Z,13.80
2022-12-05T08:54:06.854Z,14.57
2022-12-05T08:56:35.217Z,13.63
2022-12-05T08:59:05.999Z,13.80
2022-12-05T09:01:37.116Z,12.80
2022-12-05T09:04:05.945Z,12.50
2022-12-05T09:06:36.143Z,13.07
2022-12-05T09:09:05.665Z,13.67
2022-12-05T09:11:34.799Z,14.20
2022-12-05T09:14:03.094Z,13.60
2022-12-05T09:16:37.617Z,14.30
2022-12-05T09:19:07.059Z,13.30
2022-12-05T09:21:36.737Z,13.53
2022-12-05T09:24:05.103Z,13.63
2022-12-05T09:26:33.315Z,12.83
2022-12-05T09:29:03.096Z,13.60
2022-12-05T09:31:31.379Z,13.27
2022-12-05T09:33:59.662Z,13.67
2022-12-05T09:36:28.813Z,13.00
2022-12-05T09:39:04.163Z,12.53
2022-12-05T09:42:07.968Z,13.17
2022-12-05T09:44:42.931Z,14.40
2022-12-05T09:47:15.304Z,13.23
2022-12-05T09:49:49.063Z,12.00
2022-12-05T09:52:22.440Z,12.07
2022-12-05T09:54:53.410Z,12.17
2022-12-05T09:57:32.060Z,12.53
2022-12-05T10:00:02.426Z,12.63
2022-12-05T10:02:34.203Z,12.33
2022-12-05T10:05:05.242Z,12.40
2022-12-05T10:07:36.722Z,11.77
2022-12-05T10:10:20.230Z,11.60
2022-12-05T10:12:54.763Z,11.60
2022-12-05T10:15:28.280Z,11.97
2022-12-05T10:18:00.067Z,14.30
2022-12-05T10:20:30.548Z,11.30
2022-12-05T10:22:59.842Z,10.67
2022-12-05T10:25:31.366Z,10.40
2022-12-05T10:28:01.693Z,11.47
2022-12-05T10:30:31.731Z,11.03
2022-12-05T10:33:07.815Z,10.83
2022-12-05T10:35:38.658Z,10.57
2022-12-05T10:38:08.961Z,9.63
2022-12-05T10:40:40.026Z,9.07
2022-12-05T10:43:09.262Z,10.10
2022-12-05T10:45:41.964Z,10.87
2022-12-05T10:48:11.784Z,10.47
2022-12-05T10:50:42.347Z,10.00
2022-12-05T10:53:14.510Z,9.87
2022-12-05T10:56:06.411Z,9.80
2022-12-05T10:58:33.651Z,10.60
2022-12-05T11:01:09.311Z,9.87
2022-12-05T11:03:39.540Z,10.20
2022-12-05T11:06:16.711Z,10.27
2022-12-05T11:11:35.416Z,9.60
2022-12-05T11:14:05.027Z,9.80
2022-12-05T11:16:34.564Z,9.73
2022-12-05T11:19:29.315Z,9.20
2022-12-05T11:21:57.894Z,10.67
2022-12-05T11:24:28.741Z,10.27
2022-12-05T11:26:58.724Z,10.13
2022-12-05T11:29:31.553Z,10.37
2022-12-05T11:32:00.162Z,10.03
2022-12-05T11:34:30.013Z,10.27
2022-12-05T11:36:59.869Z,9.20
2022-12-05T11:39:28.243Z,9.83
2022-12-05T11:42:06.821Z,8.33
2022-12-05T11:44:41.493Z,8.63
2022-12-05T11:47:16.027Z,8.83
2022-12-05T11:49:51.898Z,8.87
2022-12-05T11:52:25.814Z,8.30
2022-12-05T11:55:06.434Z,8.40
2022-12-05T11:57:52.067Z,8.57
2022-12-05T12:00:22.893Z,9.53
2022-12-05T12:03:06.616Z,8.73
2022-12-05T12:05:39.453Z,9.07
2022-12-05T12:08:14.370Z,9.87
2022-12-05T12:10:50.326Z,8.67
2022-12-05T12:13:27.667Z,8.83
2022-12-05T12:16:06.646Z,9.13
2022-12-05T12:18:48.142Z,8.73
2022-12-05T12:21:19.258Z,9.00
2022-12-05T12:23:57.081Z,10.23
2022-12-05T12:26:31.862Z,9.73
2022-12-05T12:29:07.441Z,9.30
2022-12-05T12:31:50.707Z,9.60
2022-12-05T12:34:36.658Z,12.73
2022-12-05T12:37:08.046Z,9.47
2022-12-05T12:39:39.717Z,7.77
2022-12-05T12:42:15.983Z,8.20
2022-12-05T12:44:55.071Z,8.60
2022-12-05T12:47:27.606Z,8.17
2022-12-05T12:50:00.871Z,7.93
2022-12-05T12:52:31.896Z,8.67
2022-12-05T12:55:09.519Z,8.70
2022-12-05T12:57:47.756Z,8.23
2022-12-05T13:00:22.784Z,8.93
2022-12-05T13:02:53.405Z,8.40
2022-12-05T13:05:24.471Z,7.97
2022-12-05T13:07:55.779Z,8.50
2022-12-05T13:10:27.739Z,8.50
2022-12-05T13:12:57.088Z,8.07
2022-12-05T13:15:29.925Z,8.63
2022-12-05T13:17:58.534Z,8.83
2022-12-05T13:20:29.773Z,8.73
2022-12-05T13:23:03.126Z,8.40
2022-12-05T13:25:35.822Z,8.87
2022-12-05T13:28:05.785Z,9.10
2022-12-05T13:30:56.363Z,8.00
2022-12-05T13:33:25.537Z,7.93
2022-12-05T13:36:17.370Z,8.80
2022-12-05T13:39:03.383Z,8.47
2022-12-05T13:41:59.151Z,8.70
2022-12-05T13:44:33.235Z,8.50
2022-12-05T13:47:07.540Z,8.80
2022-12-05T13:49:38.715Z,8.97
2022-12-05T13:52:09.873Z,8.50
2022-12-05T13:54:44.221Z,8.43
2022-12-05T13:57:27.294Z,8.60
2022-12-05T14:00:04.968Z,8.27
2022-12-05T14:03:04.551Z,8.10
2022-12-05T14:05:42.455Z,8.97
2022-12-05T14:08:39.147Z,7.77
2022-12-05T14:11:12.265Z,7.70
2022-12-05T14:13:42.273Z,7.50
2022-12-05T14:16:29.030Z,6.77
2022-12-05T14:19:01.183Z,6.63
2022-12-05T14:21:38.410Z,7.13
2022-12-05T14:24:09.457Z,7.20
2022-12-05T14:26:42.987Z,7.57
2022-12-05T14:29:29.975Z,6.93
2022-12-05T14:32:05.810Z,7.60
2022-12-05T14:34:35.522Z,6.50
2022-12-05T14:37:06.625Z,6.63
2022-12-05T14:39:37.707Z,6.60
2022-12-05T14:42:07.714Z,8.33
2022-12-05T14:44:36.412Z,9.00
2022-12-05T14:47:06.684Z,10.03
2022-12-05T14:49:52.191Z,8.77
2022-12-05T14:52:24.874Z,12.57
2022-12-05T14:54:54.150Z,10.30
2022-12-05T14:57:23.005Z,8.17
2022-12-05T14:59:52.862Z,8.40
2022-12-05T15:02:23.951Z,8.57
2022-12-05T15:04:54.444Z,8.97
2022-12-05T15:07:32.494Z,12.00
2022-12-05T15:10:02.171Z,12.83
2022-12-05T15:12:46.524Z,8.90
2022-12-05T15:15:17.456Z,9.70
2022-12-05T15:17:47.972Z,9.50
2022-12-05T15:20:18.433Z,9.27
2022-12-05T15:22:48.113Z,9.63
2022-12-05T15:25:17.687Z,9.63
2022-12-05T15:27:53.269Z,9.53
2022-12-05T15:30:21.804Z,10.70
2022-12-05T15:32:51.874Z,11.50
2022-12-05T15:35:24.881Z,9.67
2022-12-05T15:37:55.431Z,9.10
2022-12-05T15:40:26.021Z,8.13
2022-12-05T15:42:55.491Z,8.60
2022-12-05T15:45:25.399Z,8.90
2022-12-05T15:47:56.723Z,8.33
2022-12-05T15:50:28.405Z,9.20
2022-12-05T15:52:59.721Z,9.30
2022-12-05T15:55:29.675Z,8.93
2022-12-05T15:58:01.547Z,8.57
2022-12-05T16:00:30.121Z,8.73
2022-12-05T16:03:01.080Z,8.63
2022-12-05T16:05:33.116Z,9.63
2022-12-05T16:08:04.319Z,8.83
2022-12-05T16:10:32.811Z,9.63
2022-12-05T16:13:04.724Z,9.10
2022-12-05T16:15:33.083Z,8.17
2022-12-05T16:18:02.696Z,9.23
2022-12-05T16:20:31.972Z,8.15
2022-12-05T16:23:02.275Z,7.30
2022-12-05T16:25:33.891Z,7.63
2022-12-05T16:28:03.898Z,7.60
2022-12-05T16:30:32.909Z,7.27
2022-12-05T16:33:02.644Z,7.03
2022-12-05T16:35:33.026Z,8.53
2022-12-05T16:38:08.836Z,10.03
2022-12-05T16:40:38.563Z,8.50
2022-12-05T16:43:07.820Z,9.17
2022-12-05T16:45:39.967Z,8.10
2022-12-05T16:48:18.805Z,7.57
2022-12-05T16:50:47.218Z,7.23
2022-12-05T16:53:18.129Z,6.60
2022-12-05T16:55:49.197Z,7.37
2022-12-05T16:58:22.987Z,7.47
2022-12-05T17:14:03.790Z,9.47
2022-12-05T17:16:42.880Z,7.60
2022-12-05T17:22:24.052Z,7.80
2022-12-05T17:34:15.785Z,7.07
2022-12-05T17:36:44.127Z,6.53
2022-12-05T17:39:12.560Z,6.20
2022-12-05T17:41:41.063Z,5.47
2022-12-05T17:44:09.613Z,5.20
2022-12-05T17:46:37.908Z,7.20
2022-12-05T17:49:06.260Z,5.93
2022-12-05T17:51:48.050Z,7.27
2022-12-05T17:54:24.051Z,5.87
2022-12-05T17:56:52.574Z,6.20
2022-12-05T17:59:20.771Z,6.03
2022-12-05T18:01:49.063Z,5.10
2022-12-05T18:07:07.051Z,6.00
2022-12-05T18:09:35.298Z,4.80
2022-12-05T18:12:03.609Z,5.07
2022-12-05T18:14:35.926Z,4.90
2022-12-05T18:17:04.573Z,5.03
2022-12-05T18:19:32.818Z,4.73
2022-12-05T18:22:01.053Z,4.90
2022-12-05T18:24:30.648Z,4.27
2022-12-05T18:26:58.973Z,4.23
2022-12-05T18:29:27.382Z,4.50
2022-12-05T18:31:55.851Z,4.30
2022-12-05T18:34:24.285Z,4.83
2022-12-05T18:36:53.358Z,4.60
2022-12-05T18:39:21.540Z,5.70
2022-12-05T18:41:51.399Z,6.77
2022-12-05T18:44:19.608Z,7.33
2022-12-05T18:46:47.819Z,7.00
2022-12-05T18:49:16.187Z,7.43
2022-12-05T18:51:44.756Z,8.60
2022-12-05T18:54:15.365Z,7.73
2022-12-05T18:56:45.885Z,7.57
2022-12-05T18:59:17.071Z,7.67
2022-12-05T19:01:45.866Z,7.90
2022-12-05T19:04:15.430Z,8.77
2022-12-05T19:06:44.724Z,7.87
2022-12-05T19:09:15.316Z,6.00
2022-12-05T19:11:47.519Z,6.23
2022-12-05T19:14:19.425Z,5.83
2022-12-05T19:16:58.016Z,5.83
2022-12-05T19:19:33.237Z,6.00
2022-12-05T19:22:02.227Z,6.27
2022-12-05T19:24:30.869Z,6.13
2022-12-05T19:27:01.572Z,5.33
2022-12-05T19:29:32.328Z,4.53
2022-12-05T19:32:01.041Z,5.37
2022-12-05T19:34:30.082Z,5.30
2022-12-05T19:36:59.667Z,4.50
2022-12-05T19:39:31.397Z,4.90
2022-12-05T19:42:01.471Z,6.20
2022-12-05T19:44:31.698Z,5.57
2022-12-05T19:47:00.935Z,4.40
2022-12-05T19:49:31.307Z,4.57
2022-12-05T19:52:01.943Z,4.90
2022-12-05T19:54:33.435Z,5.27
2022-12-05T19:57:01.789Z,5.67
2022-12-05T19:59:31.575Z,5.93
2022-12-05T20:01:59.852Z,4.87
2022-12-05T20:04:28.317Z,4.53
2022-12-05T20:06:56.638Z,4.40
2022-12-05T20:09:25.055Z,4.10
2022-12-05T20:11:55.458Z,4.70
2022-12-05T20:14:24.461Z,5.47
2022-12-05T20:16:54.709Z,4.83
2022-12-05T20:19:23.497Z,4.63
2022-12-05T20:21:51.828Z,5.50
2022-12-05T20:24:20.374Z,6.23
2022-12-05T20:26:52.977Z,5.37
2022-12-05T20:29:21.682Z,5.07
2022-12-05T20:31:56.569Z,4.90
2022-12-05T20:34:26.348Z,5.40
2022-12-05T20:36:54.668Z,5.17
2022-12-05T20:39:24.796Z,5.37
2022-12-05T20:41:53.272Z,5.50
2022-12-05T20:44:21.629Z,5.00
2022-12-05T20:46:50.517Z,4.77
2022-12-05T20:49:19.483Z,4.60
2022-12-05T20:51:49.448Z,5.00
2022-12-05T20:54:18.548Z,4.67
2022-12-05T20:56:47.618Z,5.77
2022-12-05T20:59:15.984Z,5.50
2022-12-05T21:01:44.589Z,5.10
2022-12-05T21:04:13.124Z,5.57
2022-12-05T21:06:42.820Z,5.30
2022-12-05T21:09:26.601Z,5.00
2022-12-05T21:11:55.433Z,6.00
2022-12-05T21:14:23.658Z,5.50
2022-12-05T21:16:52.839Z,5.73
2022-12-05T21:19:21.128Z,5.83
2022-12-05T21:21:49.416Z,6.80
2022-12-05T21:24:19.039Z,6.17
2022-12-05T21:26:47.736Z,5.93
2022-12-05T21:29:16.399Z,5.50
2022-12-05T21:31:45.296Z,5.63
2022-12-05T21:34:16.033Z,7.10
2022-12-05T21:36:44.858Z,6.90
2022-12-05T21:39:13.235Z,6.83
2022-12-05T21:41:43.010Z,6.30
2022-12-05T21:44:11.328Z,6.33
2022-12-05T21:46:39.569Z,5.87
2022-12-05T21:49:08.071Z,6.30
2022-12-05T21:51:36.582Z,5.80
2022-12-05T21:54:04.847Z,5.70
2022-12-05T21:56:33.109Z,5.63
2022-12-05T21:59:02.753Z,5.63
2022-12-05T22:01:31.074Z,7.27
2022-12-05T22:04:00.712Z,6.00
2022-12-05T22:06:29.926Z,6.10
2022-12-05T22:08:58.193Z,7.20
2022-12-05T22:11:26.805Z,7.30
2022-12-05T22:13:55.201Z,8.77
2022-12-05T22:16:32.203Z,7.10
2022-12-05T22:19:01.262Z,6.90
2022-12-05T22:21:29.824Z,6.63
2022-12-05T22:23:58.369Z,7.13
2022-12-05T22:26:27.560Z,7.43
2022-12-05T22:28:56.918Z,6.30
2022-12-05T22:31:29.408Z,6.63
2022-12-05T22:33:59.014Z,6.73
2022-12-05T22:36:27.703Z,7.37
2022-12-05T22:38:56.015Z,6.80
2022-12-05T22:41:25.299Z,6.83
2022-12-05T22:43:55.662Z,7.10
2022-12-05T22:46:24.894Z,7.67
2022-12-05T22:48:54.551Z,7.00
2022-12-05T22:51:23.371Z,6.90
2022-12-05T22:53:51.972Z,7.10
2022-12-05T22:56:20.962Z,6.77
2022-12-05T22:58:49.257Z,6.47
2022-12-05T23:01:18.708Z,6.67
2022-12-05T23:03:48.157Z,6.53
2022-12-05T23:06:18.712Z,6.53
2022-12-05T23:08:48.727Z,6.60
2022-12-05T23:11:17.718Z,6.50
2022-12-05T23:13:46.453Z,6.40
2022-12-05T23:16:15.817Z,6.07
2022-12-05T23:18:50.282Z,6.57
2022-12-05T23:21:21.222Z,6.60
2022-12-05T23:23:50.117Z,6.93
2022-12-05T23:26:19.174Z,6.90
2022-12-05T23:28:47.419Z,6.60
2022-12-05T23:31:15.695Z,6.47
2022-12-05T23:33:44.129Z,7.10
2022-12-05T23:36:12.795Z,7.10
2022-12-05T23:38:43.134Z,6.60
2022-12-05T23:41:13.158Z,7.17
2022-12-05T23:43:42.600Z,7.73
2022-12-05T23:46:11.290Z,8.17
2022-12-05T23:48:39.843Z,8.33
2022-12-05T23:51:09.853Z,8.87
2022-12-05T23:53:38.995Z,8.30
2022-12-05T23:56:09.891Z,8.40
2022-12-05T23:58:38.112Z,8.47
